Time;durP1;ratioP1;P1;durP2;ratioP2;P2;SDS_P1;SDS_P2;PMS_P1;PMS_P2;Temp;Humidity;BMP_temperature;BMP_pressure;BME280_temperature;BME280_humidity;BME280_pressure;Samples;Min_cycle;Max_cycle;Signal;HPM_P1;HPM_P2
2023/05/29 00:00:59;;;;;;;5.97;2.40;;;;;;;10.95;71.89;99724.22;5088355;28;20156;-43
2023/05/29 00:03:25;;;;;;;5.20;2.30;;;;;;;10.95;71.40;99729.41;5071868;28;20038;-43
2023/05/29 00:05:52;;;;;;;4.22;2.45;;;;;;;10.96;71.40;99728.53;5090428;28;20036;-43
2023/05/29 00:08:18;;;;;;;3.42;2.03;;;;;;;10.99;71.46;99718.84;5090976;28;20054;-42
2023/05/29 00:10:44;;;;;;;7.10;2.22;;;;;;;11.00;70.18;99720.56;5089170;28;20047;-42
2023/05/29 00:13:10;;;;;;;4.65;2.30;;;;;;;10.99;70.48;99725.84;5090349;28;20036;-43
2023/05/29 00:15:36;;;;;;;6.60;2.35;;;;;;;10.80;70.49;99691.78;5071489;28;20131;-43
2023/05/29 00:18:02;;;;;;;6.18;2.38;;;;;;;10.96;70.65;99731.97;5088126;28;20039;-43
2023/05/29 00:20:28;;;;;;;11.13;3.05;;;;;;;10.96;70.77;99731.13;5090792;28;20048;-42
2023/05/29 00:22:55;;;;;;;6.50;2.72;;;;;;;10.93;70.97;99729.50;5090570;28;20040;-41
2023/05/29 00:25:21;;;;;;;4.68;2.13;;;;;;;10.90;71.42;99729.59;5089576;28;20047;-43
2023/05/29 00:27:47;;;;;;;5.03;2.33;;;;;;;10.93;70.28;99719.09;5090493;28;20072;-42
2023/05/29 00:30:13;;;;;;;7.40;2.38;;;;;;;10.92;70.46;99725.19;5088516;28;20124;-42
2023/05/29 00:32:39;;;;;;;5.03;2.10;;;;;;;10.92;70.24;99737.34;5089236;28;20533;-42
2023/05/29 00:35:05;;;;;;;5.22;2.30;;;;;;;10.91;70.22;99736.50;5089865;28;20118;-41
2023/05/29 00:37:31;;;;;;;5.68;2.00;;;;;;;10.89;70.24;99735.69;5072221;28;20529;-42
2023/05/29 00:39:57;;;;;;;5.65;2.33;;;;;;;10.88;70.36;99727.94;5090163;28;20044;-42
2023/05/29 00:42:23;;;;;;;4.88;1.98;;;;;;;10.87;70.10;99737.50;5053457;28;20036;-41
2023/05/29 00:44:49;;;;;;;6.03;2.42;;;;;;;10.84;70.45;99729.78;5070355;28;20066;-42
2023/05/29 00:47:15;;;;;;;3.85;2.20;;;;;;;10.83;70.41;99737.66;5089102;28;20124;-42
2023/05/29 00:49:41;;;;;;;5.47;2.25;;;;;;;10.82;70.36;99738.56;5085395;28;20131;-44
2023/05/29 00:52:10;;;;;;;3.08;2.00;;;;;;;10.80;70.59;99733.41;5088535;28;20078;-41
2023/05/29 00:54:36;;;;;;;7.10;2.15;;;;;;;10.82;69.85;99735.97;5069751;28;20048;-46
2023/05/29 00:57:02;;;;;;;4.32;1.90;;;;;;;10.81;70.54;99737.72;5069135;28;20039;-43
2023/05/29 00:59:30;;;;;;;5.47;2.08;;;;;;;10.81;69.13;99737.72;5070444;28;20040;-42
2023/05/29 01:01:58;;;;;;;4.95;2.08;;;;;;;10.82;69.42;99742.00;5053167;28;20050;-41
2023/05/29 01:04:26;;;;;;;4.22;2.00;;;;;;;10.80;69.68;99733.41;5070157;28;20055;-43
2023/05/29 01:06:52;;;;;;;8.35;1.90;;;;;;;10.82;68.76;99739.41;5067675;28;20066;-42
2023/05/29 01:09:18;;;;;;;6.97;2.15;;;;;;;10.81;68.82;99742.91;5089887;28;20044;-43
2023/05/29 01:11:58;;;;;;;4.00;2.13;;;;;;;10.83;68.69;99746.31;5071679;28;20129;-42
2023/05/29 01:14:47;;;;;;;4.53;1.70;;;;;;;10.84;67.83;99742.78;5037954;28;20036;-41
2023/05/29 01:17:34;;;;;;;;;;;;;;;10.85;68.10;99754.06;5071831;28;20475;-43
2023/05/29 01:20:09;;;;;;;5.90;1.80;;;;;;;10.81;68.53;99745.50;5045779;28;19923;-42
2023/05/29 01:22:54;;;;;;;3.30;2.00;;;;;;;10.81;68.81;99755.91;5066893;28;20040;-45
2023/05/29 01:25:39;;;;;;;4.00;2.10;;;;;;;10.80;68.56;99759.41;5053284;28;20131;-44
2023/05/29 01:28:07;;;;;;;4.68;2.13;;;;;;;10.62;68.73;99737.47;5051258;28;20206;-42
2023/05/29 01:30:34;;;;;;;3.70;1.98;;;;;;;10.77;69.33;99767.34;5053745;28;20048;-43
2023/05/29 01:33:00;;;;;;;3.08;2.13;;;;;;;10.79;69.28;99759.47;5070629;28;20044;-43
2023/05/29 01:35:26;;;;;;;5.18;2.20;;;;;;;10.78;69.13;99760.38;5070455;28;20075;-43
2023/05/29 01:37:54;;;;;;;7.00;2.28;;;;;;;10.79;69.56;99762.91;5078893;28;20043;-46
2023/05/29 01:40:22;;;;;;;3.72;2.25;;;;;;;10.79;69.67;99769.84;5054719;28;20040;-44
2023/05/29 01:42:48;;;;;;;4.88;2.22;;;;;;;10.65;69.48;99743.47;5069181;28;20040;-43
2023/05/29 01:45:14;;;;;;;6.63;2.72;;;;;;;10.79;69.56;99756.84;5052589;28;20052;-44
2023/05/29 01:47:40;;;;;;;5.20;2.08;;;;;;;10.74;70.18;99749.22;5054358;28;20582;-46
2023/05/29 01:50:07;;;;;;;7.13;2.50;;;;;;;10.54;70.66;99712.66;5051986;28;20096;-46
2023/05/29 01:52:35;;;;;;;4.07;2.10;;;;;;;10.78;70.75;99769.00;5052593;28;20607;-44
2023/05/29 01:55:01;;;;;;;7.13;2.33;;;;;;;10.75;70.80;99760.47;5033120;28;20041;-43
2023/05/29 01:57:28;;;;;;;8.18;2.42;;;;;;;10.78;70.79;99760.38;5068648;28;20040;-45
2023/05/29 01:59:54;;;;;;;5.43;2.03;;;;;;;10.81;70.79;99762.88;5034263;28;20048;-44
2023/05/29 02:02:23;;;;;;;9.98;2.50;;;;;;;10.83;71.04;99764.53;5067390;28;20066;-43
2023/05/29 02:04:49;;;;;;;6.47;2.27;;;;;;;10.85;71.00;99764.44;5087061;28;20036;-42
2023/05/29 02:07:15;;;;;;;3.42;1.90;;;;;;;10.85;71.40;99764.44;5069778;28;20043;-43
2023/05/29 02:09:41;;;;;;;7.30;2.05;;;;;;;10.87;70.88;99763.50;5070541;28;20099;-42
2023/05/29 02:12:07;;;;;;;2.97;2.10;;;;;;;10.74;70.73;99740.56;5087965;28;20044;-43
2023/05/29 02:14:34;;;;;;;5.22;2.25;;;;;;;10.91;71.08;99759.03;5069262;28;20047;-44
2023/05/29 02:17:01;;;;;;;8.27;2.65;;;;;;;10.94;71.32;99764.97;5070385;28;20040;-43
2023/05/29 02:19:27;;;;;;;5.10;2.30;;;;;;;10.97;71.38;99764.91;5051292;28;20051;-42
2023/05/29 02:21:53;;;;;;;7.82;2.13;;;;;;;10.85;70.76;99748.84;5069100;28;20032;-42
2023/05/29 02:24:19;;;;;;;7.10;2.25;;;;;;;11.02;70.88;99769.94;5089612;28;20123;-43
2023/05/29 02:26:47;;;;;;;6.53;2.45;;;;;;;11.04;71.31;99768.97;5090642;28;20040;-44
2023/05/29 02:29:13;;;;;;;6.22;2.33;;;;;;;11.08;71.29;99777.53;5061168;28;20070;-44
2023/05/29 02:31:39;;;;;;;5.95;2.25;;;;;;;11.10;70.82;99778.31;5066903;28;20071;-43
2023/05/29 02:34:05;;;;;;;3.65;2.10;;;;;;;11.12;71.14;99773.91;5065506;28;20565;-43
2023/05/29 02:36:31;;;;;;;6.32;2.28;;;;;;;11.14;71.01;99777.31;5045861;28;20068;-43
2023/05/29 02:38:58;;;;;;;4.50;2.45;;;;;;;11.18;71.09;99773.69;5070171;28;20032;-44
2023/05/29 02:41:23;;;;;;;4.18;2.13;;;;;;;11.21;70.46;99776.19;5084773;28;20047;-45
2023/05/29 02:43:50;;;;;;;7.25;2.53;;;;;;;11.21;71.03;99770.97;5067463;28;20039;-44
2023/05/29 02:46:16;;;;;;;6.85;2.40;;;;;;;11.23;71.55;99774.38;5069885;28;20507;-45
2023/05/29 02:48:42;;;;;;;14.90;8.20;;;;;;;11.25;70.51;99774.34;5070188;28;20093;-42
2023/05/29 02:51:08;;;;;;;7.65;2.63;;;;;;;11.13;70.42;99754.81;5068330;28;20075;-44
2023/05/29 02:53:34;;;;;;;12.80;4.63;;;;;;;11.06;69.14;99732.50;5054839;28;20595;-43
2023/05/29 02:56:00;;;;;;;3.85;2.47;;;;;;;11.40;69.50;99782.44;5045888;28;20048;-43
2023/05/29 02:58:27;;;;;;;4.50;2.40;;;;;;;11.39;69.21;99775.53;5046700;28;20040;-44
2023/05/29 03:00:53;;;;;;;8.13;2.33;;;;;;;11.48;68.04;99783.00;5047012;28;20033;-42
2023/05/29 03:03:19;;;;;;;4.78;2.33;;;;;;;11.54;67.99;99786.28;5045351;28;20127;-43
2023/05/29 03:05:46;;;;;;;4.72;2.15;;;;;;;11.55;67.75;99790.59;5059673;28;20041;-43
2023/05/29 03:08:13;;;;;;;5.30;2.33;;;;;;;11.60;68.29;99792.13;5028089;28;20535;-43
2023/05/29 03:10:43;;;;;;;6.38;2.45;;;;;;;11.57;67.87;99787.03;5036751;28;20041;-46
2023/05/29 03:13:09;;;;;;;4.40;2.33;;;;;;;11.64;67.67;99800.66;5046445;28;20043;-44
2023/05/29 03:15:38;;;;;;;;;;;;;;;11.66;67.67;99799.72;5026601;28;20531;-43
2023/05/29 03:18:05;;;;;;;5.65;1.98;;;;;;;11.51;67.55;99776.00;5050386;28;19986;-47
2023/05/29 03:20:32;;;;;;;5.70;2.15;;;;;;;11.72;66.65;99809.06;5042639;28;20051;-46
2023/05/29 03:23:00;;;;;;;7.00;2.28;;;;;;;11.78;66.76;99811.44;5053064;28;20518;-43
2023/05/29 03:25:26;;;;;;;4.07;2.10;;;;;;;11.82;67.19;99808.72;5050280;28;20047;-48
2023/05/29 03:27:53;;;;;;;4.68;2.30;;;;;;;11.89;67.19;99810.16;5045252;28;20048;-43
2023/05/29 03:30:20;;;;;;;5.13;2.10;;;;;;;11.93;66.42;99813.50;5058491;28;20051;-45
2023/05/29 03:32:47;;;;;;;6.95;2.50;;;;;;;12.02;66.12;99809.69;5066769;28;20131;-44
2023/05/29 03:35:13;;;;;;;6.15;2.13;;;;;;;12.08;66.13;99807.72;5062978;28;20632;-44
2023/05/29 03:37:42;;;;;;;5.38;3.00;;;;;;;11.96;65.14;99781.25;5049917;28;20037;-44
2023/05/29 03:40:09;;;;;;;4.45;2.08;;;;;;;12.21;64.95;99810.69;5066480;28;20045;-46
2023/05/29 03:42:35;;;;;;;6.10;2.10;;;;;;;12.28;64.40;99815.59;5048568;28;20092;-43
2023/05/29 03:45:02;;;;;;;4.82;2.13;;;;;;;12.31;64.66;99818.06;5064595;28;20045;-44
2023/05/29 03:47:30;;;;;;;6.78;1.90;;;;;;;12.35;64.59;99812.75;5066149;28;20048;-44
2023/05/29 03:49:56;;;;;;;4.38;1.85;;;;;;;12.41;63.62;99815.09;5048869;28;20044;-45
2023/05/29 03:52:22;;;;;;;3.60;1.65;;;;;;;12.48;63.45;99808.75;5053077;28;20455;-42
2023/05/29 03:54:48;;;;;;;5.93;1.70;;;;;;;12.31;62.68;99791.16;5055023;28;20098;-43
2023/05/29 03:57:14;;;;;;;4.32;2.10;;;;;;;12.59;62.26;99820.44;5054028;28;20136;-40
2023/05/29 03:59:40;;;;;;;4.75;2.08;;;;;;;12.64;62.77;99828.09;5072100;28;20626;-41
2023/05/29 04:02:07;;;;;;;8.57;3.55;;;;;;;12.70;62.32;99826.09;5090152;28;20066;-42
2023/05/29 04:04:35;;;;;;;6.00;2.83;;;;;;;12.75;62.24;99833.72;5071576;28;20044;-42
2023/05/29 04:07:01;;;;;;;3.95;1.80;;;;;;;12.80;61.59;99834.38;5069677;28;20032;-44
2023/05/29 04:09:26;;;;;;;3.22;1.80;;;;;;;12.85;61.21;99831.56;5072905;28;20131;-43
2023/05/29 04:11:54;;;;;;;3.97;1.77;;;;;;;12.94;60.74;99834.66;5072550;28;20126;-44
2023/05/29 04:14:20;;;;;;;5.45;2.00;;;;;;;13.01;60.32;99836.09;5039797;28;20039;-46
2023/05/29 04:16:46;;;;;;;5.93;2.10;;;;;;;13.08;59.78;99828.88;5087857;28;20130;-44
2023/05/29 04:19:12;;;;;;;8.27;1.90;;;;;;;13.14;59.83;99836.44;5071562;28;20127;-42
2023/05/29 04:21:39;;;;;;;6.00;1.80;;;;;;;13.21;59.02;99840.50;5038179;28;20086;-43
2023/05/29 04:24:05;;;;;;;3.00;1.35;;;;;;;13.28;58.05;99839.34;5049525;28;20573;-42
2023/05/29 04:26:32;;;;;;;4.40;1.70;;;;;;;13.35;57.63;99845.13;5070465;28;20177;-43
2023/05/29 04:28:58;;;;;;;5.32;1.88;;;;;;;13.43;57.11;99845.66;5071810;28;20040;-45
2023/05/29 04:31:26;;;;;;;2.78;1.35;;;;;;;13.52;56.89;99851.31;5072380;28;20040;-44
2023/05/29 04:33:54;;;;;;;3.58;1.50;;;;;;;13.58;56.49;99845.00;5073107;28;20043;-42
2023/05/29 04:36:25;;;;;;;4.82;2.15;;;;;;;13.65;56.22;99845.56;5051574;28;20051;-41
2023/05/29 04:38:55;;;;;;;11.15;2.40;;;;;;;13.55;56.34;99816.41;5079853;28;20484;-42
2023/05/29 04:41:28;;;;;;;3.97;1.52;;;;;;;13.52;56.27;99799.09;5064313;28;20426;-42
2023/05/29 04:43:56;;;;;;;2.63;1.70;;;;;;;13.83;56.28;99849.97;5066214;28;20043;-42
2023/05/29 04:46:25;;;;;;;2.97;1.63;;;;;;;13.81;54.86;99842.22;5079450;28;20043;-43
2023/05/29 04:48:54;;;;;;;5.43;1.65;;;;;;;13.99;54.44;99843.13;5071503;28;20425;-41
2023/05/29 04:51:21;;;;;;;4.72;1.73;;;;;;;14.06;54.27;99849.78;5073961;28;20092;-41
2023/05/29 04:53:51;;;;;;;7.05;1.95;;;;;;;14.15;54.20;99858.97;5057451;28;20082;-42
2023/05/29 04:56:18;;;;;;;3.67;1.85;;;;;;;14.24;54.11;99858.53;5032109;28;20508;-42
2023/05/29 04:58:45;;;;;;;6.50;1.92;;;;;;;14.31;53.64;99857.34;5044386;28;20045;-42
2023/05/29 05:01:14;;;;;;;5.03;1.88;;;;;;;14.38;53.19;99858.78;5037326;28;20127;-42
2023/05/29 05:03:41;;;;;;;3.45;1.50;;;;;;;14.47;53.00;99854.88;5047389;28;20048;-43
2023/05/29 05:06:07;;;;;;;4.97;1.60;;;;;;;14.55;52.99;99861.44;5046914;28;20045;-42
2023/05/29 05:08:34;;;;;;;5.05;2.20;;;;;;;14.44;52.62;99836.72;5045449;28;20033;-42
2023/05/29 05:11:00;;;;;;;2.42;1.73;;;;;;;14.60;52.37;99848.97;5029204;28;20045;-48
2023/05/29 05:13:26;;;;;;;2.83;1.80;;;;;;;14.78;51.58;99866.41;5047750;28;20053;-42
2023/05/29 05:15:53;;;;;;;2.50;1.48;;;;;;;14.86;51.44;99868.69;5044960;28;20207;-43
2023/05/29 05:18:20;;;;;;;3.65;1.67;;;;;;;14.64;50.41;99828.75;5048653;28;20044;-41
2023/05/29 05:20:56;;;;;;;6.97;2.00;;;;;;;14.99;50.60;99867.13;5032551;28;20473;-43
2023/05/29 05:23:22;;;;;;;5.43;1.70;;;;;;;15.05;50.78;99866.84;5048394;28;20045;-42
2023/05/29 05:25:48;;;;;;;3.47;1.77;;;;;;;15.21;50.75;99877.41;5031093;28;20052;-42
2023/05/29 05:28:14;;;;;;;4.57;1.63;;;;;;;15.35;50.52;99866.22;5047665;28;20076;-42
2023/05/29 05:30:41;;;;;;;6.10;1.85;;;;;;;15.44;50.39;99857.91;5047437;28;20465;-45
2023/05/29 05:33:07;;;;;;;5.72;2.40;;;;;;;15.55;50.16;99860.81;5047002;28;20660;-42
2023/05/29 05:35:33;;;;;;;9.95;2.58;;;;;;;15.51;49.88;99836.56;5047796;28;20048;-43
2023/05/29 05:38:00;;;;;;;5.22;1.42;;;;;;;15.82;49.21;99863.78;5046679;28;20044;-42
2023/05/29 05:40:27;;;;;;;4.80;1.70;;;;;;;15.96;48.93;99867.34;5050932;28;20037;-44
2023/05/29 05:43:12;;;;;;;2.47;1.40;;;;;;;16.04;48.68;99859.94;5061499;28;20053;-42
2023/05/29 05:46:04;;;;;;;5.80;1.70;;;;;;;16.24;48.04;99861.47;5047665;28;20048;-42
2023/05/29 05:48:31;;;;;;;9.73;1.65;;;;;;;16.36;46.52;99870.47;5030613;28;20540;-43
2023/05/29 05:50:57;;;;;;;2.78;1.50;;;;;;;16.45;45.62;99867.31;5047128;28;20041;-42
2023/05/29 05:53:24;;;;;;;4.38;1.50;;;;;;;16.50;45.15;99860.88;5046258;28;20067;-46
2023/05/29 05:55:51;;;;;;;4.78;1.45;;;;;;;16.67;44.75;99870.47;5065865;28;20140;-43
2023/05/29 05:58:17;;;;;;;5.88;1.60;;;;;;;16.80;44.14;99866.22;5072523;28;20059;-41
2023/05/29 06:00:44;;;;;;;4.07;1.70;;;;;;;16.86;43.51;99865.88;5061796;28;20044;-46
2023/05/29 06:03:10;;;;;;;4.10;1.20;;;;;;;17.00;43.44;99867.72;5064167;28;20036;-44
2023/05/29 06:05:56;;;;;;;7.65;1.67;;;;;;;17.10;42.72;99868.88;5066330;28;20040;-42
2023/05/29 06:08:23;;;;;;;5.43;1.50;;;;;;;17.22;43.21;99868.13;5065882;28;20052;-43
2023/05/29 06:10:51;;;;;;;4.13;1.48;;;;;;;17.39;43.50;99864.53;5066547;28;20040;-42
2023/05/29 06:13:17;;;;;;;3.33;1.60;;;;;;;17.59;43.36;99877.34;5066823;28;20863;-45
2023/05/29 06:15:48;;;;;;;7.28;1.80;;;;;;;17.75;42.77;99879.91;5066213;28;20048;-42
2023/05/29 06:18:14;;;;;;;6.13;1.58;;;;;;;17.88;41.35;99867.72;5066608;28;20040;-42
2023/05/29 06:20:41;;;;;;;1.30;0.82;;;;;;;17.99;39.90;99873.16;5050206;28;20036;-43
2023/05/29 06:23:07;;;;;;;2.50;0.93;;;;;;;18.08;38.83;99869.97;5049208;28;20040;-44
2023/05/29 06:25:35;;;;;;;5.05;1.42;;;;;;;18.18;37.87;99854.44;5066925;28;20047;-48
2023/05/29 06:28:02;;;;;;;1.95;0.80;;;;;;;18.51;36.53;99877.78;5067949;28;20043;-44
2023/05/29 06:30:29;;;;;;;1.35;0.80;;;;;;;18.68;36.39;99858.31;5046726;28;20079;-49
2023/05/29 06:32:56;;;;;;;3.80;1.90;;;;;;;19.26;35.89;99860.59;5064993;28;20097;-44
2023/05/29 06:35:28;;;;;;;4.93;1.10;;;;;;;20.11;34.87;99875.78;5066921;28;20136;-49
2023/05/29 06:37:54;;;;;;;0.77;0.60;;;;;;;20.71;32.73;99866.16;5066422;28;20094;-45
2023/05/29 06:40:20;;;;;;;1.63;0.70;;;;;;;21.44;29.82;99859.84;5067134;28;20044;-47
2023/05/29 06:42:46;;;;;;;36.38;8.43;;;;;;;22.77;29.53;99891.63;5068015;28;20127;-48
2023/05/29 06:45:15;;;;;;;2.20;1.08;;;;;;;23.59;28.53;99894.56;5049554;28;20052;-46
2023/05/29 06:47:42;;;;;;;2.30;0.85;;;;;;;24.78;28.00;99879.66;5066767;28;20044;-46
2023/05/29 06:50:09;;;;;;;5.35;0.90;;;;;;;26.01;26.89;99886.88;5066627;28;20044;-44
2023/05/29 06:52:37;;;;;;;2.60;0.93;;;;;;;26.75;25.38;99889.44;5029817;28;20063;-44
2023/05/29 06:55:35;;;;;;;3.40;2.53;;;;;;;28.01;24.82;99898.03;5018243;28;20595;-46
2023/05/29 06:58:01;;;;;;;3.47;1.60;;;;;;;28.74;23.77;99888.50;5022145;28;20046;-48
2023/05/29 07:00:28;;;;;;;3.45;1.80;;;;;;;29.85;23.20;99889.72;5025985;28;20127;-45
2023/05/29 07:03:17;;;;;;;2.58;0.88;;;;;;;30.21;21.19;99874.03;5009041;28;20037;-46
2023/05/29 07:05:43;;;;;;;7.13;1.00;;;;;;;30.88;20.55;99896.69;5004100;28;20149;-45
2023/05/29 07:08:09;;;;;;;2.63;1.00;;;;;;;31.60;19.98;99891.81;5008866;28;20038;-47
2023/05/29 07:10:35;;;;;;;2.08;1.13;;;;;;;32.02;18.96;99893.06;5007725;28;20093;-47
2023/05/29 07:13:01;;;;;;;2.00;1.40;;;;;;;32.78;18.86;99868.41;4982640;28;20482;-49
2023/05/29 07:15:27;;;;;;;4.65;1.63;;;;;;;34.07;18.36;99889.66;4991068;28;20472;-45
2023/05/29 07:17:53;;;;;;;6.22;2.33;;;;;;;34.96;17.48;99892.31;5025192;28;20115;-48
2023/05/29 07:20:24;;;;;;;2.90;1.10;;;;;;;35.54;16.94;99893.44;5004558;28;20070;-46
2023/05/29 07:22:50;;;;;;;4.82;1.10;;;;;;;36.16;16.12;99892.13;5016922;28;20099;-52
2023/05/29 07:25:16;;;;;;;3.67;1.40;;;;;;;36.84;15.97;99891.44;4975602;28;20650;-48
2023/05/29 07:27:42;;;;;;;3.97;1.20;;;;;;;37.24;15.55;99869.47;4989866;28;20125;-47
2023/05/29 07:30:08;;;;;;;3.13;1.40;;;;;;;37.77;15.43;99880.72;5005587;28;20215;-52
2023/05/29 07:32:36;;;;;;;2.33;1.40;;;;;;;36.79;14.93;99877.72;5057631;28;20089;-47
2023/05/29 07:35:01;;;;;;;1.90;1.38;;;;;;;36.44;14.58;99882.63;5031170;28;20060;-46
2023/05/29 07:37:30;;;;;;;;;;;;;;;37.07;14.79;99887.31;5067018;28;20047;-48
2023/05/29 07:39:57;;;;;;;4.72;1.40;;;;;;;37.26;14.23;99889.94;5066060;28;19923;-48
2023/05/29 07:42:41;;;;;;;2.03;1.13;;;;;;;36.00;14.62;99886.09;5050765;28;20083;-47
2023/05/29 07:45:08;;;;;;;1.73;1.10;;;;;;;34.28;15.23;99870.66;5051365;28;20114;-47
2023/05/29 07:47:34;;;;;;;1.50;1.30;;;;;;;34.07;15.73;99849.16;5065533;28;20037;-48
2023/05/29 07:50:00;;;;;;;2.45;1.35;;;;;;;35.57;15.16;99879.47;5066582;28;20041;-49
2023/05/29 07:52:30;;;;;;;3.10;2.13;;;;;;;36.41;15.07;99868.69;5071883;28;20120;-49
2023/05/29 07:54:56;;;;;;;4.00;1.70;;;;;;;37.46;14.00;99865.34;5072699;28;20044;-46
2023/05/29 07:57:25;;;;;;;3.10;1.30;;;;;;;38.06;13.62;99847.41;5072876;28;20040;-49
2023/05/29 07:59:52;;;;;;;4.32;1.50;;;;;;;38.48;13.67;99852.97;5072935;28;20040;-52
2023/05/29 08:02:18;;;;;;;7.07;1.60;;;;;;;39.03;13.22;99877.31;5090119;28;20075;-46
2023/05/29 08:05:10;;;;;;;3.83;1.58;;;;;;;37.26;13.70;99872.81;5090835;28;20099;-48
2023/05/29 08:07:37;;;;;;;2.97;1.80;;;;;;;37.22;13.74;99877.00;5075703;28;20065;-51
2023/05/29 08:10:05;;;;;;;7.18;1.67;;;;;;;36.96;13.62;99879.88;5098371;28;20044;-49
2023/05/29 08:12:31;;;;;;;4.18;1.60;;;;;;;37.05;13.79;99875.88;5055437;28;20142;-50
2023/05/29 08:14:59;;;;;;;;;;;;;;;37.90;13.47;99879.72;5072346;28;20431;-52
2023/05/29 08:17:25;;;;;;;3.63;1.98;;;;;;;38.13;12.80;99888.09;5090954;28;19927;-48
2023/05/29 08:19:51;;;;;;;3.05;1.45;;;;;;;35.83;13.67;99884.88;5050432;28;20423;-44
2023/05/29 08:22:17;;;;;;;3.70;1.58;;;;;;;35.01;14.04;99877.16;5070736;28;20044;-44
2023/05/29 08:24:43;;;;;;;2.33;1.30;;;;;;;35.43;14.21;99869.72;5084783;28;20035;-48
2023/05/29 08:27:09;;;;;;;3.38;1.60;;;;;;;35.61;14.14;99878.84;5083371;28;20043;-50
2023/05/29 08:29:36;;;;;;;1.55;1.30;;;;;;;36.03;13.57;99855.91;5068593;28;20043;-53
2023/05/29 08:32:02;;;;;;;1.60;1.30;;;;;;;35.40;13.50;99870.13;5075142;28;20506;-53
2023/05/29 08:34:28;;;;;;;1.83;1.40;;;;;;;34.64;13.85;99873.09;5083319;28;20036;-52
2023/05/29 08:36:55;;;;;;;3.85;1.50;;;;;;;33.50;14.78;99873.66;5088830;28;20044;-51
2023/05/29 08:39:21;;;;;;;3.70;1.85;;;;;;;34.25;14.50;99875.63;5067261;28;20113;-51
2023/05/29 08:41:57;;;;;;;9.45;1.60;;;;;;;35.24;13.97;99874.06;5085135;28;20051;-49
2023/05/29 08:44:23;;;;;;;4.32;1.60;;;;;;;36.09;13.82;99870.44;5071139;28;20044;-48
2023/05/29 08:46:55;;;;;;;2.67;1.35;;;;;;;37.33;12.85;99876.28;5085236;28;20039;-49
2023/05/29 08:49:22;;;;;;;1.75;1.45;;;;;;;38.35;12.08;99889.28;5085973;28;20127;-51
2023/05/29 08:51:52;;;;;;;2.85;1.20;;;;;;;37.54;11.65;99869.63;5080880;28;20043;-49
2023/05/29 08:54:18;;;;;;;1.40;1.30;;;;;;;37.05;12.49;99852.28;5069374;28;20052;-52
2023/05/29 08:56:44;;;;;;;2.63;1.20;;;;;;;38.48;12.14;99845.66;5082677;28;20043;-56
2023/05/29 08:59:11;;;;;;;3.17;1.55;;;;;;;38.00;12.27;99866.53;5067947;28;20119;-53
2023/05/29 09:01:39;;;;;;;1.60;1.40;;;;;;;37.26;12.98;99859.25;5055522;28;20040;-53
2023/05/29 09:04:05;;;;;;;2.58;1.50;;;;;;;38.22;12.72;99845.13;5080799;28;20093;-51
2023/05/29 09:06:31;;;;;;;6.40;1.50;;;;;;;39.65;12.33;99871.28;5069634;28;20534;-51
2023/05/29 09:08:57;;;;;;;1.42;1.30;;;;;;;38.70;12.18;99832.38;5065375;28;20074;-49
2023/05/29 09:11:23;;;;;;;2.53;1.60;;;;;;;36.97;13.14;99857.97;5087174;28;20056;-50
2023/05/29 09:13:49;;;;;;;2.33;1.52;;;;;;;37.87;12.81;99850.34;5084272;28;20040;-53
2023/05/29 09:16:18;;;;;;;3.60;1.40;;;;;;;37.43;12.70;99838.63;5054755;28;20048;-51
2023/05/29 09:18:48;;;;;;;3.30;1.65;;;;;;;36.45;13.42;99854.50;5068625;28;20044;-52
2023/05/29 09:21:29;;;;;;;2.03;1.23;;;;;;;36.24;13.87;99838.56;5067294;28;20029;-50
2023/05/29 09:24:03;;;;;;;2.85;1.48;;;;;;;37.12;13.25;99835.97;5065406;28;20531;-52
2023/05/29 09:26:29;;;;;;;2.22;1.40;;;;;;;37.84;12.63;99846.22;5080468;28;20036;-53
2023/05/29 09:29:21;;;;;;;4.35;1.60;;;;;;;37.90;12.98;99841.72;5067173;28;20058;-54
2023/05/29 09:31:47;;;;;;;4.65;1.60;;;;;;;38.97;11.82;99820.09;5082337;28;20095;-53
2023/05/29 09:34:13;;;;;;;2.25;1.30;;;;;;;37.63;12.60;99827.63;5088940;28;20581;-55
2023/05/29 09:36:39;;;;;;;3.00;1.60;;;;;;;35.70;13.53;99830.78;5069686;28;20047;-53
2023/05/29 09:39:09;;;;;;;2.58;1.40;;;;;;;35.67;13.57;99825.81;5087953;28;20055;-54
2023/05/29 09:41:42;;;;;;;4.00;1.80;;;;;;;36.32;13.19;99823.97;5089390;28;20777;-50
2023/05/29 09:44:13;;;;;;;1.52;1.38;;;;;;;36.14;12.89;99813.81;5070381;28;20036;-54
2023/05/29 09:46:46;;;;;;;1.45;1.30;;;;;;;35.44;13.07;99828.09;5089338;28;20036;-52
2023/05/29 09:49:13;;;;;;;2.00;1.52;;;;;;;35.68;13.23;99817.47;5089372;28;20036;-55
2023/05/29 09:51:42;;;;;;;3.17;1.50;;;;;;;36.00;13.33;99813.03;5070916;28;20043;-55
2023/05/29 09:54:15;;;;;;;1.50;1.20;;;;;;;38.03;12.26;99823.44;5087610;28;20198;-52
2023/05/29 09:56:43;;;;;;;4.50;1.70;;;;;;;38.27;12.01;99826.25;5071276;28;20069;-53
2023/05/29 09:59:14;;;;;;;3.97;1.42;;;;;;;37.01;11.89;99821.22;5071253;28;20051;-53
2023/05/29 10:01:44;;;;;;;2.05;1.30;;;;;;;36.42;12.39;99808.91;5089071;28;20039;-54
2023/05/29 10:04:10;;;;;;;2.95;1.27;;;;;;;35.89;12.61;99812.84;5053503;28;20036;-50
2023/05/29 10:06:38;;;;;;;1.50;1.30;;;;;;;35.90;12.04;99815.34;5088996;28;20185;-50
2023/05/29 10:09:05;;;;;;;;;;;;;;;35.79;12.31;99820.59;5070610;28;20074;-52
2023/05/29 10:11:32;;;;;;;1.42;1.27;;;;;;;35.17;12.63;99809.16;5088571;28;19916;-51
2023/05/29 10:14:00;;;;;;;5.97;1.30;;;;;;;37.07;12.02;99801.38;5053270;28;20040;-52
2023/05/29 10:16:27;;;;;;;5.05;1.38;;;;;;;38.65;11.30;99810.50;5085446;28;20039;-56
2023/05/29 10:18:57;;;;;;;2.45;1.35;;;;;;;38.28;11.35;99804.31;5086251;28;20039;-53
2023/05/29 10:21:27;;;;;;;2.55;1.58;;;;;;;38.63;11.31;99809.91;5088442;28;20042;-51
2023/05/29 10:23:54;;;;;;;2.88;1.85;;;;;;;38.95;11.60;99810.47;5088509;28;20450;-53
2023/05/29 10:26:28;;;;;;;1.90;1.60;;;;;;;40.32;11.09;99803.56;5069222;28;20044;-50
2023/05/29 10:29:02;;;;;;;2.40;1.67;;;;;;;40.45;10.87;99808.72;5060746;28;20416;-56
2023/05/29 10:31:42;;;;;;;1.77;1.67;;;;;;;39.88;10.85;99807.00;5049295;28;20036;-50
2023/05/29 10:34:39;;;;;;;6.25;1.83;;;;;;;39.91;11.17;99801.06;5087625;28;20046;-50
2023/05/29 10:37:05;;;;;;;;;;;;;;;40.58;10.75;99794.78;5090910;28;20036;-53
2023/05/29 10:39:31;;;;;;;3.45;1.83;;;;;;;40.60;11.25;99786.34;5066522;28;19989;-52
2023/05/29 10:41:59;;;;;;;1.95;1.63;;;;;;;41.27;10.45;99791.88;5067807;28;20036;-55
2023/05/29 10:44:31;;;;;;;;;;;;;;;39.05;11.34;99780.81;5074996;28;20089;-52
2023/05/29 10:47:06;;;;;;;1.50;1.40;;;;;;;38.05;12.03;99783.28;5085020;28;19947;-56
2023/05/29 10:49:32;;;;;;;2.28;1.52;;;;;;;37.92;12.18;99766.31;5092937;28;20036;-50
2023/05/29 10:52:01;;;;;;;9.45;2.70;;;;;;;38.34;11.47;99776.22;5070747;28;20042;-56
2023/05/29 10:54:27;;;;;;;3.90;1.90;;;;;;;39.10;11.26;99777.41;5062815;28;20171;-58
2023/05/29 10:56:58;;;;;;;2.95;1.67;;;;;;;40.39;11.14;99778.88;5041309;28;20432;-50
2023/05/29 10:59:27;;;;;;;2.03;1.60;;;;;;;40.59;10.70;99781.97;5083147;28;20392;-54
2023/05/29 11:01:53;;;;;;;2.88;1.85;;;;;;;39.88;10.87;99783.31;5050333;28;20043;-51
2023/05/29 11:04:26;;;;;;;1.50;1.40;;;;;;;38.85;11.19;99777.56;5087013;28;20036;-55
2023/05/29 11:06:52;;;;;;;1.58;1.48;;;;;;;38.89;11.13;99757.06;5083814;28;20286;-55
2023/05/29 11:09:39;;;;;;;3.10;1.63;;;;;;;40.59;10.87;99780.06;5069507;28;20579;-55
2023/05/29 11:12:33;;;;;;;;;;;;;;;40.04;10.99;99774.34;5070289;28;20069;-55
2023/05/29 11:15:14;;;;;;;2.70;1.58;;;;;;;39.78;10.71;99739.53;5087771;28;19922;-57
2023/05/29 11:17:40;;;;;;;47.60;4.53;;;;;;;40.76;10.75;99766.50;5069138;28;20538;-54
2023/05/29 11:20:08;;;;;;;2.35;1.95;;;;;;;40.66;10.42;99760.03;5081119;28;20063;-54
2023/05/29 11:22:56;;;;;;;4.70;2.00;;;;;;;40.16;10.60;99760.69;5069323;28;20040;-50
2023/05/29 11:25:22;;;;;;;2.00;1.70;;;;;;;39.50;10.42;99731.28;5086602;28;20039;-59
2023/05/29 11:27:50;;;;;;;1.90;1.65;;;;;;;38.82;11.00;99746.25;5087509;28;20514;-54
2023/05/29 11:30:16;;;;;;;2.17;1.60;;;;;;;38.95;11.24;99748.78;5051990;28;20043;-51
2023/05/29 11:32:46;;;;;;;3.13;1.60;;;;;;;40.48;10.53;99747.41;5067638;28;20052;-53
2023/05/29 11:35:13;;;;;;;2.53;1.60;;;;;;;40.29;10.52;99746.00;5066154;28;20036;-53
2023/05/29 11:37:42;;;;;;;4.43;1.70;;;;;;;38.91;10.99;99739.44;5067200;28;20055;-52
2023/05/29 11:40:09;;;;;;;4.25;1.80;;;;;;;39.90;11.19;99751.19;5079418;28;20523;-49